KMCI/MCI METAR and TAF weather

Enter ICAO airport designator
Station Type Date Time Source
KMCI METAR 2019/12/07 16:53 UTC NOAA

KMCI 071653Z 20012KT 10SM FEW170 05/M02 A3028 RMK AO2 SLP261 T00501022


Station Type Date Time Source
KMCI Decoded METAR 2019/12/07 16:53 UTC NOAA

KANSAS CITY INTERNATIONAL AIRPORT, MO, United States (KMCI) 39-18N 94-44W 320M
Dec 07, 2019 - 11:53 AM EST / 2019.12.07 1653 UTC
Wind: from the SSW (200 degrees) at 14 MPH (12 KT):0
Visibility: 10 mile(s):0
Sky conditions: mostly clear
Temperature: 41.0 F (5.0 C)
Dew Point: 28.0 F (-2.2 C)
Relative Humidity: 59%
Pressure (altimeter): 30.28 in. Hg (1025 hPa)
ob: KMCI 071653Z 20012KT 10SM FEW170 05/M02 A3028 RMK AO2 SLP261 T00501022
cycle: 17

Station Type Date Time Source
KMCI TAF 2019/12/07 18:22 UTC NOAA

TAF KMCI 071720Z 0718/0818 18009KT P6SM FEW250
FM080600 19010KT P6SM SCT250 WS020/22040KT
FM081200 19012KT P6SM SCT250

Example: see airport list